createdAt,value
2018-02-23T00:00:20.617Z,58.50
2018-02-23T00:01:20.666Z,58.60
2018-02-23T00:02:20.805Z,58.50
2018-02-23T00:03:20.681Z,58.70
2018-02-23T00:04:21.087Z,58.60
2018-02-23T00:05:20.791Z,58.60
2018-02-23T00:06:20.832Z,58.60
2018-02-23T00:07:20.921Z,58.60
2018-02-23T00:08:20.949Z,58.60
2018-02-23T00:09:20.864Z,58.60
2018-02-23T00:10:20.952Z,58.60
2018-02-23T00:11:21.281Z,58.60
2018-02-23T00:12:20.970Z,58.60
2018-02-23T00:13:21.000Z,58.60
2018-02-23T00:14:21.147Z,58.50
2018-02-23T00:15:21.107Z,58.60
2018-02-23T00:16:21.091Z,58.60
2018-02-23T00:17:21.181Z,58.70
2018-02-23T00:18:21.438Z,58.70
2018-02-23T00:19:21.185Z,58.60
2018-02-23T00:20:21.217Z,58.60
2018-02-23T00:21:21.230Z,58.50
2018-02-23T00:22:21.256Z,58.60
2018-02-23T00:23:21.387Z,58.60
2018-02-23T00:24:21.407Z,58.60
2018-02-23T00:25:21.664Z,58.60
2018-02-23T00:26:21.371Z,58.70
2018-02-23T00:27:21.479Z,58.50
2018-02-23T00:28:21.438Z,58.50
2018-02-23T00:29:21.502Z,58.60
2018-02-23T00:30:21.547Z,58.70
2018-02-23T00:31:21.878Z,58.60
2018-02-23T00:32:21.552Z,58.50
2018-02-23T00:33:21.605Z,58.60
2018-02-23T00:34:21.631Z,58.60
2018-02-23T00:35:21.698Z,58.60
2018-02-23T00:36:21.690Z,58.60
2018-02-23T00:37:22.044Z,58.60
2018-02-23T00:38:21.774Z,58.60
2018-02-23T00:39:21.771Z,58.50
2018-02-23T00:40:21.853Z,58.70
2018-02-23T00:41:21.998Z,58.70
2018-02-23T00:42:21.870Z,58.40
2018-02-23T00:43:22.261Z,58.70
2018-02-23T00:44:21.938Z,58.79
2018-02-23T00:45:22.019Z,58.60
2018-02-23T00:46:21.983Z,58.50
2018-02-23T00:47:22.124Z,58.50
2018-02-23T00:48:22.051Z,58.70
2018-02-23T00:49:22.355Z,58.60
2018-02-23T00:50:22.124Z,58.70
2018-02-23T00:51:22.123Z,57.92
2018-02-23T00:52:22.183Z,58.22
2018-02-23T00:53:22.341Z,57.92
2018-02-23T00:54:22.205Z,58.22
2018-02-23T00:55:22.536Z,58.22
2018-02-23T00:56:22.325Z,57.92
2018-02-23T00:57:22.295Z,58.31
2018-02-23T00:58:22.402Z,58.02
2018-02-23T00:59:22.466Z,58.12
2018-02-23T01:00:22.459Z,58.02
2018-02-23T01:01:22.740Z,58.02
2018-02-23T01:02:22.477Z,58.02
2018-02-23T01:03:22.475Z,57.92
2018-02-23T01:04:22.555Z,58.22
2018-02-23T01:05:22.527Z,58.70
2018-02-23T01:06:22.647Z,58.22
2018-02-23T01:07:22.925Z,58.50
2018-02-23T01:08:22.713Z,58.89
2018-02-23T01:09:22.754Z,58.60
2018-02-23T01:10:22.707Z,58.22
2018-02-23T01:11:22.715Z,58.31
2018-02-23T01:12:22.765Z,58.22
2018-02-23T01:13:23.114Z,58.70
2018-02-23T01:14:22.996Z,58.22
2018-02-23T01:15:22.837Z,58.31
2018-02-23T01:16:22.893Z,58.31
2018-02-23T01:17:22.900Z,58.31
2018-02-23T01:18:22.999Z,58.50
2018-02-23T01:19:23.261Z,58.60
2018-02-23T01:20:23.039Z,58.22
2018-02-23T01:21:23.046Z,58.70
2018-02-23T01:22:23.102Z,58.31
2018-02-23T01:23:23.157Z,58.50
2018-02-23T01:24:23.173Z,58.40
2018-02-23T01:25:23.456Z,58.40
2018-02-23T01:26:23.181Z,58.50
2018-02-23T01:27:23.269Z,58.50
2018-02-23T01:28:23.240Z,58.70
2018-02-23T01:29:23.299Z,58.50
2018-02-23T01:30:23.316Z,58.50
2018-02-23T01:31:23.680Z,58.70
2018-02-23T01:32:23.358Z,58.50
2018-02-23T01:33:23.403Z,58.50
2018-02-23T01:34:23.455Z,58.50
2018-02-23T01:35:23.616Z,58.50
2018-02-23T01:36:23.536Z,58.50
2018-02-23T01:37:23.785Z,58.50
2018-02-23T01:38:23.530Z,58.50
2018-02-23T01:39:23.588Z,58.40
2018-02-23T01:40:23.698Z,58.31
2018-02-23T01:41:23.665Z,58.50
2018-02-23T01:42:23.662Z,58.50
2018-02-23T01:43:23.991Z,58.50
2018-02-23T01:44:23.757Z,58.50
2018-02-23T01:45:23.864Z,58.50
2018-02-23T01:46:23.759Z,58.50
2018-02-23T01:47:23.806Z,58.40
2018-02-23T01:48:23.854Z,58.50
2018-02-23T01:49:23.875Z,58.50
2018-02-23T01:50:24.211Z,58.40
2018-02-23T01:51:23.939Z,58.60
2018-02-23T01:52:23.929Z,58.40
2018-02-23T01:53:23.956Z,58.70
2018-02-23T01:54:24.012Z,58.60
2018-02-23T01:55:24.043Z,58.60
2018-02-23T01:56:24.150Z,58.50
2018-02-23T01:57:24.389Z,58.70
2018-02-23T01:58:24.169Z,58.40
2018-02-23T01:59:24.181Z,58.50
2018-02-23T02:00:24.194Z,58.60
2018-02-23T02:01:24.349Z,58.70
2018-02-23T02:02:24.219Z,58.60
2018-02-23T02:03:24.276Z,58.47
2018-02-23T02:04:24.610Z,58.70
2018-02-23T02:05:24.329Z,58.40
2018-02-23T02:06:24.410Z,58.47
2018-02-23T02:07:24.436Z,58.47
2018-02-23T02:08:24.419Z,58.70
2018-02-23T02:09:24.450Z,58.47
2018-02-23T02:10:24.518Z,58.40
2018-02-23T02:11:24.825Z,58.70
2018-02-23T02:12:24.669Z,58.47
2018-02-23T02:13:24.642Z,58.79
2018-02-23T02:14:24.629Z,58.70
2018-02-23T02:15:24.680Z,58.70
2018-02-23T02:16:24.651Z,58.47
2018-02-23T02:17:24.675Z,58.57
2018-02-23T02:18:25.119Z,58.47
2018-02-23T02:19:24.738Z,58.47
2018-02-23T02:20:24.832Z,58.67
2018-02-23T02:21:24.801Z,58.67
2018-02-23T02:22:24.927Z,58.70
2018-02-23T02:23:24.945Z,58.47
2018-02-23T02:24:24.952Z,58.40
2018-02-23T02:25:25.263Z,58.57
2018-02-23T02:26:24.933Z,58.60
2018-02-23T02:27:24.956Z,58.57
2018-02-23T02:28:25.025Z,58.50
2018-02-23T02:29:25.013Z,58.67
2018-02-23T02:30:25.098Z,58.47
2018-02-23T02:31:25.109Z,58.60
2018-02-23T02:32:25.426Z,58.70
2018-02-23T02:33:25.156Z,58.47
2018-02-23T02:34:25.186Z,58.57
2018-02-23T02:35:25.261Z,58.70
2018-02-23T02:36:25.299Z,58.57
2018-02-23T02:37:25.248Z,58.57
2018-02-23T02:38:25.396Z,58.47
2018-02-23T02:39:25.634Z,58.70
2018-02-23T02:40:25.357Z,57.90
2018-02-23T02:41:25.432Z,58.67
2018-02-23T02:42:25.412Z,58.28
2018-02-23T02:43:25.492Z,58.28
2018-02-23T02:44:25.545Z,57.90
2018-02-23T02:45:25.613Z,57.99
2018-02-23T02:46:25.864Z,57.99
2018-02-23T02:47:25.617Z,58.12
2018-02-23T02:48:25.785Z,58.28
2018-02-23T02:49:25.647Z,58.28
2018-02-23T02:50:25.674Z,58.50
2018-02-23T02:51:25.703Z,58.67
2018-02-23T02:52:25.732Z,58.67
2018-02-23T02:53:26.104Z,58.67
2018-02-23T02:54:25.787Z,58.40
2018-02-23T02:55:25.869Z,57.90
2018-02-23T02:56:25.835Z,58.22
2018-02-23T02:57:25.860Z,57.99
2018-02-23T02:58:25.964Z,58.22
2018-02-23T02:59:26.005Z,58.28
2018-02-23T03:00:26.304Z,58.12
2018-02-23T03:01:25.979Z,58.37
2018-02-23T03:02:26.008Z,58.18
2018-02-23T03:03:26.127Z,58.09
2018-02-23T03:04:26.063Z,57.80
2018-02-23T03:05:26.098Z,58.09
2018-02-23T03:06:26.430Z,57.99
2018-02-23T03:07:26.183Z,57.99
2018-02-23T03:08:26.266Z,57.64
2018-02-23T03:09:26.407Z,57.51
2018-02-23T03:10:26.276Z,57.64
2018-02-23T03:11:26.270Z,57.51
2018-02-23T03:12:26.620Z,57.64
2018-02-23T03:13:26.357Z,57.51
2018-02-23T03:14:26.361Z,57.70
2018-02-23T03:15:26.518Z,57.32
2018-02-23T03:16:26.444Z,57.32
2018-02-23T03:17:26.428Z,57.22
2018-02-23T03:18:26.864Z,57.42
2018-02-23T03:19:26.504Z,57.60
2018-02-23T03:20:26.648Z,57.51
2018-02-23T03:21:26.548Z,57.35
2018-02-23T03:22:26.621Z,57.60
2018-02-23T03:23:26.622Z,57.35
2018-02-23T03:24:26.991Z,57.60
2018-02-23T03:25:26.693Z,57.51
2018-02-23T03:26:26.738Z,57.32
2018-02-23T03:27:26.742Z,57.32
2018-02-23T03:28:26.880Z,57.13
2018-02-23T03:29:26.831Z,57.42
2018-02-23T03:30:27.348Z,57.32
2018-02-23T03:31:26.875Z,57.15
2018-02-23T03:32:26.922Z,57.22
2018-02-23T03:33:26.988Z,57.42
2018-02-23T03:34:26.992Z,57.42
2018-02-23T03:35:27.036Z,57.60
2018-02-23T03:36:27.313Z,57.45
2018-02-23T03:37:27.075Z,57.70
2018-02-23T03:38:27.146Z,57.51
2018-02-23T03:39:27.109Z,57.51
2018-02-23T03:40:27.155Z,57.51
2018-02-23T03:41:27.201Z,57.32
2018-02-23T03:42:27.485Z,57.51
2018-02-23T03:43:27.284Z,57.32
2018-02-23T03:44:27.307Z,57.45
2018-02-23T03:45:27.363Z,57.42
2018-02-23T03:46:27.348Z,57.42
2018-02-23T03:47:27.362Z,57.32
2018-02-23T03:48:27.706Z,57.51
2018-02-23T03:49:27.446Z,57.42
2018-02-23T03:50:27.550Z,57.32
2018-02-23T03:51:27.485Z,57.64
2018-02-23T03:52:27.461Z,57.70
2018-02-23T03:53:27.497Z,57.45
2018-02-23T03:54:27.848Z,57.60
2018-02-23T03:55:27.705Z,57.32
2018-02-23T03:56:27.687Z,57.32
2018-02-23T03:57:27.627Z,57.32
2018-02-23T03:58:27.709Z,57.22
2018-02-23T03:59:27.727Z,57.60
2018-02-23T04:00:28.036Z,57.51
2018-02-23T04:01:27.745Z,57.13
2018-02-23T04:02:27.933Z,57.32
2018-02-23T04:03:27.808Z,57.60
2018-02-23T04:04:27.819Z,57.42
2018-02-23T04:05:27.995Z,57.13
2018-02-23T04:06:28.195Z,57.51
2018-02-23T04:07:27.940Z,57.60
2018-02-23T04:08:27.969Z,57.42
2018-02-23T04:09:27.985Z,57.60
2018-02-23T04:10:28.012Z,57.70
2018-02-23T04:11:28.072Z,57.32
2018-02-23T04:12:28.404Z,57.42
2018-02-23T04:13:28.126Z,57.70
2018-02-23T04:14:28.162Z,57.70
2018-02-23T04:15:28.163Z,57.32
2018-02-23T04:16:28.195Z,57.42
2018-02-23T04:17:28.354Z,57.51
2018-02-23T04:18:28.313Z,57.32
2018-02-23T04:19:28.591Z,57.80
2018-02-23T04:20:28.340Z,57.70
2018-02-23T04:21:28.313Z,57.70
2018-02-23T04:22:28.363Z,57.51
2018-02-23T04:23:28.408Z,57.80
2018-02-23T04:24:28.616Z,57.70
2018-02-23T04:25:28.593Z,57.60
2018-02-23T04:26:28.822Z,57.70
2018-02-23T04:27:28.526Z,57.60
2018-02-23T04:28:28.558Z,57.70
2018-02-23T04:29:28.606Z,57.51
2018-02-23T04:30:28.599Z,57.51
2018-02-23T04:31:28.735Z,57.60
2018-02-23T04:32:28.693Z,57.60
2018-02-23T04:33:28.975Z,57.70
2018-02-23T04:34:28.757Z,57.70
2018-02-23T04:35:28.729Z,57.51
2018-02-23T04:36:28.844Z,57.42
2018-02-23T04:37:28.806Z,57.80
2018-02-23T04:38:28.833Z,57.42
2018-02-23T04:39:28.872Z,57.70
2018-02-23T04:40:29.292Z,57.51
2018-02-23T04:41:28.946Z,57.70
2018-02-23T04:42:28.962Z,57.03
2018-02-23T04:43:28.997Z,57.70
2018-02-23T04:44:29.135Z,57.51
2018-02-23T04:45:29.027Z,57.22
2018-02-23T04:46:29.052Z,57.32
2018-02-23T04:47:29.411Z,57.13
2018-02-23T04:48:29.130Z,57.70
2018-02-23T04:49:29.246Z,57.32
2018-02-23T04:50:29.229Z,57.42
2018-02-23T04:51:29.249Z,57.32
2018-02-23T04:52:29.251Z,57.13
2018-02-23T04:53:29.257Z,57.32
2018-02-23T04:54:29.706Z,57.22
2018-02-23T04:55:29.336Z,57.22
2018-02-23T04:56:29.459Z,57.32
2018-02-23T04:57:29.425Z,57.22
2018-02-23T04:58:29.426Z,57.03
2018-02-23T04:59:29.556Z,57.03
2018-02-23T05:00:29.499Z,57.13
2018-02-23T05:01:29.849Z,57.03
2018-02-23T05:02:29.574Z,57.03
2018-02-23T05:03:29.571Z,57.13
2018-02-23T05:04:29.579Z,57.13
2018-02-23T05:05:29.646Z,57.03
2018-02-23T05:06:29.663Z,57.51
2018-02-23T05:07:29.774Z,57.60
2018-02-23T05:08:30.004Z,57.32
2018-02-23T05:09:29.813Z,57.70
2018-02-23T05:10:29.751Z,57.51
2018-02-23T05:11:29.792Z,57.70
2018-02-23T05:12:29.822Z,57.70
2018-02-23T05:13:29.940Z,57.51
2018-02-23T05:14:29.913Z,57.32
2018-02-23T05:15:30.203Z,57.70
2018-02-23T05:16:30.040Z,57.70
2018-02-23T05:17:30.010Z,57.42
2018-02-23T05:18:30.029Z,57.70
2018-02-23T05:19:30.040Z,57.70
2018-02-23T05:20:30.101Z,57.42
2018-02-23T05:21:30.301Z,57.70
2018-02-23T05:22:30.470Z,57.70
2018-02-23T05:23:30.149Z,57.80
2018-02-23T05:24:30.205Z,57.51
2018-02-23T05:25:30.262Z,57.60
2018-02-23T05:26:30.273Z,57.70
2018-02-23T05:27:30.325Z,57.42
2018-02-23T05:28:30.321Z,57.70
2018-02-23T05:29:30.696Z,57.42
2018-02-23T05:30:30.360Z,57.60
2018-02-23T05:31:30.413Z,57.32
2018-02-23T05:32:30.437Z,57.32
2018-02-23T05:33:30.650Z,57.51
2018-02-23T05:34:30.549Z,57.13
2018-02-23T05:35:30.798Z,56.84
2018-02-23T05:36:30.526Z,57.60
2018-02-23T05:37:30.597Z,57.51
2018-02-23T05:38:30.621Z,57.80
2018-02-23T05:39:30.697Z,57.32
2018-02-23T05:40:30.704Z,56.84
2018-02-23T05:41:31.005Z,56.93
2018-02-23T05:42:30.827Z,57.03
2018-02-23T05:43:30.752Z,57.03
2018-02-23T05:44:30.805Z,57.03
2018-02-23T05:45:30.847Z,57.13
2018-02-23T05:46:30.871Z,57.03
2018-02-23T05:47:31.189Z,56.84
2018-02-23T05:48:30.984Z,57.03
2018-02-23T05:49:30.992Z,57.22
2018-02-23T05:50:30.992Z,57.03
2018-02-23T05:51:31.114Z,56.84
2018-02-23T05:52:31.031Z,57.22
2018-02-23T05:53:31.347Z,57.03
2018-02-23T05:54:31.054Z,57.22
2018-02-23T05:55:31.136Z,57.13
2018-02-23T05:56:31.175Z,57.13
2018-02-23T05:57:31.402Z,57.22
2018-02-23T05:58:31.187Z,57.32
2018-02-23T05:59:31.527Z,57.32
2018-02-23T06:00:31.331Z,56.93
2018-02-23T06:01:31.311Z,57.03
2018-02-23T06:02:31.333Z,56.93
2018-02-23T06:03:31.392Z,57.03
2018-02-23T06:04:31.359Z,56.84
2018-02-23T06:05:31.696Z,57.03
2018-02-23T06:06:31.410Z,57.03
2018-02-23T06:07:31.440Z,57.03
2018-02-23T06:08:31.500Z,56.93
2018-02-23T06:09:31.629Z,56.93
2018-02-23T06:10:31.569Z,57.03
2018-02-23T06:11:31.884Z,57.22
2018-02-23T06:12:31.641Z,57.51
2018-02-23T06:13:31.664Z,57.03
2018-02-23T06:14:31.769Z,57.51
2018-02-23T06:15:31.681Z,56.84
2018-02-23T06:16:31.753Z,56.93
2018-02-23T06:17:32.065Z,57.13
2018-02-23T06:18:31.759Z,57.03
2018-02-23T06:19:31.906Z,57.13
2018-02-23T06:20:31.853Z,57.32
2018-02-23T06:21:31.868Z,57.22
2018-02-23T06:22:31.903Z,57.13
2018-02-23T06:23:32.256Z,57.03
2018-02-23T06:24:32.028Z,57.03
2018-02-23T06:25:32.012Z,57.13
2018-02-23T06:26:32.117Z,57.32
2018-02-23T06:27:32.111Z,57.22
2018-02-23T06:28:32.060Z,57.03
2018-02-23T06:29:32.446Z,57.80
2018-02-23T06:30:32.112Z,57.42
2018-02-23T06:31:32.168Z,57.03
2018-02-23T06:32:32.238Z,57.13
2018-02-23T06:33:32.231Z,57.03
2018-02-23T06:34:32.307Z,57.03
2018-02-23T06:35:32.611Z,57.13
2018-02-23T06:36:32.392Z,56.93
2018-02-23T06:37:32.350Z,57.03
2018-02-23T06:38:32.394Z,57.13
2018-02-23T06:39:32.477Z,57.22
2018-02-23T06:40:32.441Z,57.22
2018-02-23T06:41:32.773Z,57.22
2018-02-23T06:42:32.512Z,56.84
2018-02-23T06:43:32.522Z,56.93
2018-02-23T06:44:32.647Z,56.74
2018-02-23T06:45:32.633Z,57.13
2018-02-23T06:46:32.601Z,57.03
2018-02-23T06:47:32.668Z,56.93
2018-02-23T06:48:32.998Z,56.74
2018-02-23T06:49:32.755Z,56.93
2018-02-23T06:50:32.776Z,56.84
2018-02-23T06:51:32.749Z,56.93
2018-02-23T06:52:32.763Z,57.13
2018-02-23T06:53:32.849Z,57.03
2018-02-23T06:54:32.874Z,57.03
2018-02-23T06:55:33.178Z,57.03
2018-02-23T06:56:32.933Z,56.93
2018-02-23T06:57:32.928Z,56.84
2018-02-23T06:58:32.969Z,56.74
2018-02-23T06:59:33.042Z,56.84
2018-02-23T07:00:33.115Z,56.93
2018-02-23T07:01:33.080Z,56.93
2018-02-23T07:02:33.375Z,56.93
2018-02-23T07:03:33.108Z,56.93
2018-02-23T07:04:33.136Z,56.84
2018-02-23T07:05:33.163Z,56.84
2018-02-23T07:06:33.182Z,56.55
2018-02-23T07:07:33.300Z,56.84
2018-02-23T07:08:33.306Z,56.84
2018-02-23T07:09:33.320Z,56.74
2018-02-23T07:10:33.334Z,56.96
2018-02-23T07:11:33.320Z,56.93
2018-02-23T07:12:33.424Z,56.93
2018-02-23T07:13:33.398Z,56.93
2018-02-23T07:14:33.504Z,56.84
2018-02-23T07:15:33.808Z,56.65
2018-02-23T07:16:33.499Z,56.74
2018-02-23T07:17:33.502Z,57.03
2018-02-23T07:18:33.546Z,57.13
2018-02-23T07:19:33.638Z,56.67
2018-02-23T07:20:33.667Z,56.45
2018-02-23T07:21:33.694Z,56.65
2018-02-23T07:22:33.966Z,56.74
2018-02-23T07:23:33.717Z,56.45
2018-02-23T07:24:33.745Z,56.58
2018-02-23T07:25:33.787Z,56.48
2018-02-23T07:26:33.809Z,56.65
2018-02-23T07:27:33.796Z,56.93
2018-02-23T07:28:33.846Z,56.84
2018-02-23T07:29:34.192Z,56.77
2018-02-23T07:30:33.929Z,56.93
2018-02-23T07:31:33.971Z,56.84
2018-02-23T07:32:33.967Z,56.45
2018-02-23T07:33:34.036Z,56.55
2018-02-23T07:34:34.007Z,56.45
2018-02-23T07:35:34.525Z,56.45
2018-02-23T07:36:34.395Z,56.65
2018-02-23T07:37:34.131Z,56.48
2018-02-23T07:38:34.147Z,56.48
2018-02-23T07:39:34.197Z,56.45
2018-02-23T07:40:34.207Z,56.58
2018-02-23T07:41:34.289Z,56.87
2018-02-23T07:42:34.266Z,56.48
2018-02-23T07:43:34.674Z,56.65
2018-02-23T07:44:34.300Z,56.96
2018-02-23T07:45:34.432Z,56.93
2018-02-23T07:46:34.376Z,56.67
2018-02-23T07:47:34.500Z,57.06
2018-02-23T07:48:34.455Z,56.58
2018-02-23T07:49:34.467Z,56.96
2018-02-23T07:50:34.870Z,56.00
2018-02-23T07:51:34.521Z,56.20
2018-02-23T07:52:34.554Z,56.29
2018-02-23T07:53:34.743Z,56.10
2018-02-23T07:54:34.637Z,56.20
2018-02-23T07:55:34.714Z,56.29
2018-02-23T07:56:34.673Z,56.20
2018-02-23T07:57:35.008Z,56.20
2018-02-23T07:58:34.740Z,56.38
2018-02-23T07:59:34.794Z,56.20
2018-02-23T08:00:34.804Z,56.00
2018-02-23T08:01:34.827Z,56.38
2018-02-23T08:02:34.852Z,56.29
2018-02-23T08:03:35.201Z,56.48
2018-02-23T08:04:34.905Z,56.38
2018-02-23T08:05:35.033Z,56.00
2018-02-23T08:06:34.949Z,56.10
2018-02-23T08:07:34.997Z,56.10
2018-02-23T08:08:35.043Z,56.10
2018-02-23T08:09:35.336Z,56.38
2018-02-23T08:10:35.246Z,56.38
2018-02-23T08:11:35.231Z,56.48
2018-02-23T08:12:35.123Z,56.00
2018-02-23T08:13:35.149Z,55.90
2018-02-23T08:14:35.221Z,56.00
2018-02-23T08:15:35.533Z,55.81
2018-02-23T08:16:35.249Z,55.71
2018-02-23T08:17:35.368Z,55.62
2018-02-23T08:18:35.324Z,55.90
2018-02-23T08:19:35.378Z,55.90
2018-02-23T08:20:35.414Z,56.10
2018-02-23T08:21:35.729Z,55.81
2018-02-23T08:22:35.428Z,55.71
2018-02-23T08:23:36.090Z,55.62
2018-02-23T08:24:35.542Z,55.43
2018-02-23T08:25:35.628Z,55.43
2018-02-23T08:26:35.577Z,55.52
2018-02-23T08:27:35.869Z,55.71
2018-02-23T08:28:35.615Z,55.33
2018-02-23T08:29:35.654Z,55.62
2018-02-23T08:30:35.684Z,55.62
2018-02-23T08:31:35.762Z,55.43
2018-02-23T08:32:35.723Z,55.04
2018-02-23T08:33:36.073Z,55.23
2018-02-23T08:34:35.861Z,55.33
2018-02-23T08:35:35.929Z,55.33
2018-02-23T08:36:35.834Z,55.43
2018-02-23T08:37:35.887Z,55.62
2018-02-23T08:38:36.031Z,55.33
2018-02-23T08:39:36.298Z,55.71
2018-02-23T08:40:35.979Z,55.43
2018-02-23T08:41:36.040Z,55.62
2018-02-23T08:42:36.028Z,55.62
2018-02-23T08:43:36.147Z,55.33
2018-02-23T08:44:36.088Z,55.52
2018-02-23T08:45:36.436Z,55.33
2018-02-23T08:46:36.155Z,55.43
2018-02-23T08:47:36.402Z,55.33
2018-02-23T08:48:36.219Z,55.33
2018-02-23T08:49:36.238Z,55.33
2018-02-23T08:50:36.306Z,55.71
2018-02-23T08:51:36.586Z,55.90
2018-02-23T08:52:36.347Z,55.71
2018-02-23T08:53:36.384Z,56.20
2018-02-23T08:54:36.420Z,55.90
2018-02-23T08:55:36.456Z,56.00
2018-02-23T08:56:36.508Z,56.20
2018-02-23T08:57:36.778Z,56.20
2018-02-23T08:58:36.549Z,55.83
2018-02-23T08:59:36.578Z,55.62
2018-02-23T09:00:36.665Z,55.43
2018-02-23T09:01:36.607Z,55.45
2018-02-23T09:02:36.613Z,55.55
2018-02-23T09:03:36.979Z,55.71
2018-02-23T09:04:36.686Z,55.52
2018-02-23T09:05:36.758Z,55.33
2018-02-23T09:06:36.799Z,55.04
2018-02-23T09:07:36.878Z,55.43
2018-02-23T09:08:36.831Z,55.45
2018-02-23T09:09:37.171Z,55.26
2018-02-23T09:10:36.884Z,55.13
2018-02-23T09:11:36.949Z,55.26
2018-02-23T09:12:36.975Z,55.23
2018-02-23T09:13:36.965Z,55.33
2018-02-23T09:14:37.001Z,55.13
2018-02-23T09:15:37.318Z,55.23
2018-02-23T09:16:37.073Z,54.94
2018-02-23T09:17:37.111Z,54.94
2018-02-23T09:18:37.160Z,54.87
2018-02-23T09:19:37.152Z,55.13
2018-02-23T09:20:37.250Z,55.04
2018-02-23T09:21:37.200Z,55.04
2018-02-23T09:22:37.583Z,55.16
2018-02-23T09:23:37.302Z,55.07
2018-02-23T09:24:37.292Z,55.04
2018-02-23T09:25:37.330Z,55.23
2018-02-23T09:26:37.358Z,54.97
2018-02-23T09:27:37.403Z,54.78
2018-02-23T09:28:37.424Z,54.68
2018-02-23T09:29:37.765Z,54.68
2018-02-23T09:30:37.507Z,54.49
2018-02-23T09:31:37.554Z,54.58
2018-02-23T09:32:37.663Z,54.49
2018-02-23T09:33:37.563Z,54.58
2018-02-23T09:34:37.626Z,54.30
2018-02-23T09:35:37.679Z,54.20
2018-02-23T09:36:37.963Z,54.68
2018-02-23T09:37:37.692Z,54.10
2018-02-23T09:38:37.874Z,54.30
2018-02-23T09:39:37.721Z,54.10
2018-02-23T09:40:37.783Z,54.39
2018-02-23T09:41:37.912Z,54.30
2018-02-23T09:42:37.844Z,54.20
2018-02-23T09:43:38.195Z,54.49
2018-02-23T09:44:37.896Z,54.49
2018-02-23T09:45:37.914Z,54.39
2018-02-23T09:46:37.991Z,54.00
2018-02-23T09:47:37.984Z,54.39
2018-02-23T09:48:37.994Z,54.10
2018-02-23T09:49:38.016Z,54.39
2018-02-23T09:50:38.400Z,54.58
2018-02-23T09:51:38.162Z,54.58
2018-02-23T09:52:38.160Z,54.30
2018-02-23T09:53:38.207Z,54.58
2018-02-23T09:54:38.207Z,54.49
2018-02-23T09:55:38.231Z,54.39
2018-02-23T09:56:38.300Z,54.58
2018-02-23T09:57:38.634Z,54.10
2018-02-23T09:58:38.382Z,54.20
2018-02-23T09:59:38.339Z,54.00
2018-02-23T10:00:38.421Z,54.10
2018-02-23T10:01:38.500Z,54.10
2018-02-23T10:02:38.420Z,54.10
2018-02-23T10:03:38.461Z,53.91
2018-02-23T10:04:38.811Z,53.81
2018-02-23T10:05:38.505Z,53.81
2018-02-23T10:06:38.561Z,53.81
2018-02-23T10:07:38.585Z,53.91
2018-02-23T10:08:38.619Z,53.91
2018-02-23T10:09:38.701Z,54.00
2018-02-23T10:10:38.653Z,54.00
2018-02-23T10:11:39.006Z,53.81
2018-02-23T10:12:38.772Z,53.91
2018-02-23T10:13:38.905Z,53.81
2018-02-23T10:14:38.809Z,53.91
2018-02-23T10:15:38.844Z,54.10
2018-02-23T10:16:38.923Z,54.00
2018-02-23T10:17:38.898Z,53.53
2018-02-23T10:18:39.319Z,54.10
2018-02-23T10:19:38.982Z,53.53
2018-02-23T10:20:39.029Z,53.53
2018-02-23T10:21:39.051Z,53.33
2018-02-23T10:22:39.055Z,53.53
2018-02-23T10:23:39.073Z,53.72
2018-02-23T10:24:39.171Z,53.72
2018-02-23T10:25:39.516Z,53.62
2018-02-23T10:26:39.160Z,53.62
2018-02-23T10:27:39.265Z,53.72
2018-02-23T10:28:39.229Z,53.72
2018-02-23T10:29:39.228Z,53.72
2018-02-23T10:30:39.307Z,53.62
2018-02-23T10:31:39.630Z,53.43
2018-02-23T10:32:39.377Z,53.81
2018-02-23T10:33:39.388Z,53.81
2018-02-23T10:34:39.416Z,53.72
2018-02-23T10:35:39.427Z,53.81
2018-02-23T10:36:39.448Z,53.81
2018-02-23T10:37:39.779Z,53.81
2018-02-23T10:38:39.536Z,54.00
2018-02-23T10:39:39.567Z,53.72
2018-02-23T10:40:39.576Z,53.81
2018-02-23T10:41:39.610Z,53.91
2018-02-23T10:42:39.658Z,53.81
2018-02-23T10:43:39.938Z,53.62
2018-02-23T10:44:39.706Z,53.62
2018-02-23T10:45:39.771Z,53.53
2018-02-23T10:46:39.820Z,53.45
2018-02-23T10:47:39.788Z,53.14
2018-02-23T10:48:39.823Z,53.23
2018-02-23T10:49:40.146Z,53.17
2018-02-23T10:50:39.892Z,53.33
2018-02-23T10:51:39.953Z,53.23
2018-02-23T10:52:39.959Z,53.43
2018-02-23T10:53:39.984Z,53.23
2018-02-23T10:54:39.989Z,53.23
2018-02-23T10:55:40.024Z,53.23
2018-02-23T10:56:40.093Z,53.23
2018-02-23T10:57:40.157Z,53.27
2018-02-23T10:58:40.135Z,53.23
2018-02-23T10:59:40.224Z,53.36
2018-02-23T11:00:40.501Z,53.23
2018-02-23T11:01:40.225Z,53.05
2018-02-23T11:02:40.281Z,53.14
2018-02-23T11:03:40.340Z,53.33
2018-02-23T11:04:40.392Z,53.23
2018-02-23T11:05:40.326Z,52.95
2018-02-23T11:06:40.672Z,53.23
2018-02-23T11:07:40.611Z,52.85
2018-02-23T11:08:40.426Z,52.85
2018-02-23T11:09:40.516Z,53.23
2018-02-23T11:10:40.470Z,52.75
2018-02-23T11:11:40.525Z,52.95
2018-02-23T11:12:40.569Z,53.27
2018-02-23T11:13:40.873Z,53.05
2018-02-23T11:14:40.608Z,52.95
2018-02-23T11:15:40.697Z,53.05
2018-02-23T11:16:40.674Z,52.69
2018-02-23T11:17:40.745Z,52.75
2018-02-23T11:18:40.749Z,52.95
2018-02-23T11:19:41.069Z,52.75
2018-02-23T11:20:40.823Z,52.85
2018-02-23T11:21:40.827Z,52.85
2018-02-23T11:22:40.907Z,52.85
2018-02-23T11:23:40.916Z,52.85
2018-02-23T11:24:40.906Z,53.05
2018-02-23T11:25:41.242Z,52.95
2018-02-23T11:26:40.988Z,53.05
2018-02-23T11:27:41.011Z,52.85
2018-02-23T11:28:41.090Z,52.85
2018-02-23T11:29:41.064Z,52.75
2018-02-23T11:30:41.081Z,52.75
2018-02-23T11:31:41.419Z,53.05
2018-02-23T11:32:41.147Z,53.14
2018-02-23T11:33:41.209Z,53.05
2018-02-23T11:34:41.199Z,53.14
2018-02-23T11:35:41.351Z,52.95
2018-02-23T11:36:41.273Z,53.23
2018-02-23T11:37:41.600Z,53.17
2018-02-23T11:38:41.310Z,53.07
2018-02-23T11:39:41.356Z,53.14
2018-02-23T11:40:41.388Z,53.07
2018-02-23T11:41:41.405Z,53.05
2018-02-23T11:42:41.437Z,52.95
2018-02-23T11:43:41.718Z,53.45
2018-02-23T11:44:41.493Z,53.23
2018-02-23T11:45:41.531Z,52.66
2018-02-23T11:46:41.584Z,52.75
2018-02-23T11:47:41.581Z,52.75
2018-02-23T11:48:41.612Z,52.85
2018-02-23T11:49:41.663Z,52.30
2018-02-23T11:50:41.921Z,52.40
2018-02-23T11:51:41.706Z,52.49
2018-02-23T11:52:41.742Z,52.37
2018-02-23T11:53:41.778Z,52.66
2018-02-23T11:54:41.830Z,52.66
2018-02-23T11:55:41.845Z,52.95
2018-02-23T11:56:42.120Z,52.69
2018-02-23T11:57:41.900Z,52.49
2018-02-23T11:58:41.933Z,52.59
2018-02-23T11:59:41.965Z,52.97
2018-02-23T12:00:41.977Z,52.97
2018-02-23T12:01:42.027Z,53.07
2018-02-23T12:02:42.033Z,52.30
2018-02-23T12:03:42.370Z,52.69
2018-02-23T12:04:42.100Z,53.07
2018-02-23T12:05:42.126Z,53.07
2018-02-23T12:06:42.158Z,52.97
2018-02-23T12:07:42.186Z,52.78
2018-02-23T12:08:42.238Z,52.59
2018-02-23T12:09:42.250Z,52.78
2018-02-23T12:10:42.531Z,52.87
2018-02-23T12:11:42.322Z,52.66
2018-02-23T12:12:42.357Z,52.69
2018-02-23T12:13:42.392Z,52.69
2018-02-23T12:14:42.470Z,52.69
2018-02-23T12:15:42.452Z,52.66
2018-02-23T12:16:42.476Z,52.59
2018-02-23T12:17:42.787Z,52.59
2018-02-23T12:18:42.546Z,52.59
2018-02-23T12:19:42.552Z,52.69
2018-02-23T12:20:42.630Z,52.69
2018-02-23T12:21:42.628Z,52.69
2018-02-23T12:22:42.659Z,52.69
2018-02-23T12:23:42.675Z,52.59
2018-02-23T12:24:43.005Z,52.69
2018-02-23T12:25:42.751Z,52.69
2018-02-23T12:26:42.787Z,52.59
2018-02-23T12:27:42.809Z,52.59
2018-02-23T12:28:42.830Z,52.69
2018-02-23T12:29:42.878Z,52.69
2018-02-23T12:30:42.915Z,52.78
2018-02-23T12:31:43.168Z,52.59
2018-02-23T12:32:42.953Z,52.87
2018-02-23T12:33:43.011Z,52.87
2018-02-23T12:34:43.011Z,52.78
2018-02-23T12:35:43.039Z,52.78
2018-02-23T12:36:43.077Z,52.59
2018-02-23T12:37:43.116Z,52.78
2018-02-23T12:38:43.397Z,52.87
2018-02-23T12:39:43.181Z,52.78
2018-02-23T12:40:43.298Z,52.69
2018-02-23T12:41:43.248Z,52.59
2018-02-23T12:42:43.258Z,52.69
2018-02-23T12:43:43.284Z,52.49
2018-02-23T12:44:43.320Z,52.49
2018-02-23T12:45:43.664Z,52.30
2018-02-23T12:46:43.404Z,52.40
2018-02-23T12:47:43.423Z,52.30
2018-02-23T12:48:43.440Z,52.59
2018-02-23T12:49:43.478Z,52.59
2018-02-23T12:50:43.496Z,52.20
2018-02-23T12:51:43.530Z,52.20
2018-02-23T12:52:43.885Z,52.49